Time;durP1;ratioP1;P1;durP2;ratioP2;P2;SDS_P1;SDS_P2;PMS_P1;PMS_P2;Temp;Humidity;BMP_temperature;BMP_pressure;BME280_temperature;BME280_humidity;BME280_pressure;Samples;Min_cycle;Max_cycle;Signal;HPM_P1;HPM_P2
2020/12/01 00:17:26;;;;;;;43.03;22.90;;;1.10;99.90;;;;;;5032423;28;20381;-52
2020/12/01 00:19:51;;;;;;;43.72;21.42;;;1.10;99.90;;;;;;5031997;28;20383;-53
2020/12/01 00:22:20;;;;;;;45.90;21.60;;;1.10;99.90;;;;;;5032218;28;20469;-53
2020/12/01 00:24:46;;;;;;;40.53;21.75;;;1.10;99.90;;;;;;5032966;28;20457;-52
2020/12/01 00:27:12;;;;;;;45.97;22.55;;;1.10;99.90;;;;;;5031896;28;20414;-52
2020/12/01 00:39:44;;;;;;;41.75;21.98;;;0.80;99.90;;;;;;5032061;28;20405;-53
2020/12/01 00:42:10;;;;;;;41.37;21.40;;;0.80;99.90;;;;;;5031525;28;20415;-53
2020/12/01 00:44:36;;;;;;;45.17;21.80;;;0.80;99.90;;;;;;5032207;28;20375;-53
2020/12/01 00:47:02;;;;;;;42.83;23.03;;;3.50;99.90;;;;;;5031064;28;20387;-53
2020/12/01 00:49:27;;;;;;;45.00;22.97;;;1.00;99.90;;;;;;5031907;28;20387;-53
2020/12/01 00:51:53;;;;;;;40.22;21.23;;;2.90;99.90;;;;;;5031576;28;20403;-53
2020/12/01 00:54:18;;;;;;;48.63;22.95;;;1.00;99.90;;;;;;5031876;28;20725;-53
2020/12/01 00:56:44;;;;;;;42.43;19.63;;;1.00;99.90;;;;;;5031703;28;20394;-52
2020/12/01 00:59:10;;;;;;;41.28;22.38;;;2.40;99.90;;;;;;5031596;28;20386;-53
2020/12/01 01:01:36;;;;;;;42.83;22.65;;;3.50;99.90;;;;;;5046398;28;20428;-52
2020/12/01 01:04:02;;;;;;;48.92;23.80;;;1.00;99.90;;;;;;5050914;28;20383;-52
2020/12/01 01:06:28;;;;;;;47.92;22.77;;;1.10;99.90;;;;;;5050028;28;20413;-52
2020/12/01 01:08:53;;;;;;;44.10;21.38;;;1.10;99.90;;;;;;5050934;28;20392;-53
2020/12/01 01:11:27;;;;;;;42.67;21.23;;;1.50;99.90;;;;;;5049675;28;20429;-52
2020/12/01 01:13:52;;;;;;;40.95;21.40;;;1.30;99.90;;;;;;5050299;28;20381;-52
2020/12/01 01:16:18;;;;;;;42.97;22.60;;;1.40;99.90;;;;;;5051465;28;20834;-52
2020/12/01 01:18:44;;;;;;;42.27;20.90;;;4.10;99.90;;;;;;5049958;28;20934;-52
2020/12/01 01:21:09;;;;;;;40.80;21.05;;;3.20;99.90;;;;;;5049970;28;20435;-52
2020/12/01 01:23:35;;;;;;;40.70;20.53;;;3.80;99.90;;;;;;5049302;28;20415;-52
2020/12/01 01:26:00;;;;;;;42.97;21.20;;;3.30;99.90;;;;;;5049803;28;20396;-52
2020/12/01 01:28:26;;;;;;;43.97;21.53;;;1.70;99.90;;;;;;5051559;28;20413;-52
2020/12/01 01:30:51;;;;;;;46.90;23.87;;;4.20;99.90;;;;;;5081489;28;20420;-56
2020/12/01 01:33:17;;;;;;;42.33;21.63;;;4.00;99.90;;;;;;5051149;28;20382;-52
2020/12/01 01:35:43;;;;;;;42.80;21.53;;;3.80;99.90;;;;;;5049331;28;20393;-52
2020/12/01 01:38:08;;;;;;;45.60;23.00;;;4.50;99.90;;;;;;5050531;28;20927;-52
2020/12/01 01:40:35;;;;;;;45.67;23.67;;;2.00;99.90;;;;;;5049357;28;20425;-52
2020/12/01 01:43:02;;;;;;;48.85;23.88;;;2.10;99.90;;;;;;5049004;28;20791;-53
2020/12/01 01:45:48;;;;;;;43.70;22.55;;;2.90;99.90;;;;;;5051256;28;20864;-52
2020/12/01 01:48:31;;;;;;;45.40;21.52;;;4.30;99.90;;;;;;5048849;28;20385;-52
2020/12/01 01:51:05;;;;;;;41.95;21.98;;;2.30;99.90;;;;;;5050149;28;20519;-52
2020/12/01 01:53:33;;;;;;;43.67;22.33;;;3.00;99.90;;;;;;5049919;28;20879;-52
2020/12/01 01:56:05;;;;;;;43.25;22.27;;;2.50;99.90;;;;;;5049732;28;20401;-53
2020/12/01 01:58:35;;;;;;;40.53;21.20;;;2.40;99.90;;;;;;5047669;28;20759;-52
2020/12/01 02:01:05;;;;;;;45.88;22.33;;;3.80;99.90;;;;;;5049810;28;20414;-53
2020/12/01 02:03:40;;;;;;;45.00;20.52;;;2.50;99.90;;;;;;5050025;28;20381;-52
2020/12/01 02:06:14;;;;;;;41.13;20.23;;;2.60;99.90;;;;;;5048836;28;20409;-54
2020/12/01 02:08:42;;;;;;;40.05;19.40;;;2.70;99.90;;;;;;5050595;28;20883;-53
2020/12/01 02:11:09;;;;;;;39.15;20.75;;;2.90;99.90;;;;;;5048312;28;20408;-51
2020/12/01 02:13:55;;;;;;;37.92;20.48;;;5.20;99.90;;;;;;5050683;28;20844;-51
2020/12/01 02:16:21;;;;;;;44.05;20.45;;;2.70;99.90;;;;;;5048613;28;20864;-51
2020/12/01 02:18:47;;;;;;;43.53;22.47;;;2.80;99.90;;;;;;5050297;28;20420;-51
2020/12/01 02:21:27;;;;;;;43.03;19.70;;;2.80;99.90;;;;;;5047674;28;20425;-52
2020/12/01 02:23:54;;;;;;;42.70;21.40;;;2.70;99.90;;;;;;5049779;28;20378;-55
2020/12/01 02:26:20;;;;;;;38.05;20.02;;;2.80;99.90;;;;;;5048599;28;20935;-52
2020/12/01 02:28:45;;;;;;;43.63;20.13;;;5.00;99.90;;;;;;5050258;28;20385;-51
2020/12/01 02:31:11;;;;;;;40.35;19.98;;;4.30;99.90;;;;;;5047731;28;20450;-52
2020/12/01 02:33:37;;;;;;;40.43;20.17;;;3.40;99.90;;;;;;5049272;28;20401;-51
2020/12/01 02:36:02;;;;;;;44.47;19.15;;;3.20;99.90;;;;;;5049224;28;20376;-51
2020/12/01 02:38:28;;;;;;;41.55;20.02;;;3.70;99.90;;;;;;5048220;28;20399;-52
2020/12/01 02:40:54;;;;;;;41.53;18.77;;;2.30;99.90;;;;;;5047166;28;20398;-52
2020/12/01 02:43:19;;;;;;;41.05;18.63;;;3.50;99.90;;;;;;5049437;28;20446;-52
2020/12/01 02:45:45;;;;;;;39.60;19.60;;;2.10;99.90;;;;;;5048128;28;20394;-52
2020/12/01 02:48:10;;;;;;;38.33;18.83;;;2.30;99.90;;;;;;5049901;28;20672;-51
2020/12/01 02:50:36;;;;;;;38.97;19.50;;;2.00;99.90;;;;;;5048565;28;20389;-51
2020/12/01 02:53:01;;;;;;;40.40;19.80;;;3.70;99.90;;;;;;5047503;28;20500;-52
2020/12/01 02:55:27;;;;;;;38.63;19.17;;;2.10;99.90;;;;;;5049611;28;20386;-51
2020/12/01 02:57:53;;;;;;;42.83;20.17;;;2.00;99.90;;;;;;5048248;28;20430;-52
2020/12/01 03:00:18;;;;;;;41.87;20.57;;;3.20;99.90;;;;;;5048835;28;20450;-51
2020/12/01 03:02:44;;;;;;;42.63;20.10;;;2.00;99.90;;;;;;5049224;28;20775;-51
2020/12/01 03:05:09;;;;;;;41.97;20.27;;;1.90;99.90;;;;;;5047775;28;20464;-51
2020/12/01 03:07:35;;;;;;;40.17;19.60;;;2.00;99.90;;;;;;5048860;28;22597;-51
2020/12/01 03:10:01;;;;;;;42.27;18.50;;;4.50;99.90;;;;;;5048034;28;20398;-52
2020/12/01 03:12:28;;;;;;;40.80;19.87;;;2.10;99.90;;;;;;5049863;28;20393;-51
2020/12/01 03:14:53;;;;;;;38.00;18.40;;;2.10;99.90;;;;;;5047348;28;20398;-52
2020/12/01 03:17:19;;;;;;;35.72;17.73;;;2.20;99.90;;;;;;5049659;28;20384;-52
2020/12/01 03:19:45;;;;;;;33.07;16.97;;;2.10;99.90;;;;;;5047800;28;20472;-51
2020/12/01 03:22:10;;;;;;;36.30;17.03;;;5.00;99.90;;;;;;5047896;28;20524;-51
2020/12/01 03:24:36;;;;;;;37.70;17.90;;;2.20;99.90;;;;;;5048405;28;20394;-52
2020/12/01 03:27:01;;;;;;;34.60;16.80;;;2.20;99.90;;;;;;5048601;28;20385;-53
2020/12/01 03:29:27;;;;;;;37.60;16.55;;;2.40;99.90;;;;;;5047290;28;20887;-52
2020/12/01 03:31:52;;;;;;;35.10;17.17;;;4.80;99.90;;;;;;5048472;28;20386;-55
2020/12/01 03:34:18;;;;;;;35.03;16.65;;;2.70;99.90;;;;;;5049476;28;20460;-51
2020/12/01 03:36:45;;;;;;;30.93;15.53;;;4.60;99.90;;;;;;5047486;28;20940;-51
2020/12/01 03:39:11;;;;;;;33.38;15.10;;;2.40;99.90;;;;;;5048451;28;20461;-51
2020/12/01 03:41:36;;;;;;;34.00;15.45;;;5.40;99.90;;;;;;5047650;28;20768;-52
2020/12/01 03:44:03;;;;;;;32.25;14.63;;;2.50;99.90;;;;;;5052351;28;20376;-50
2020/12/01 03:46:28;;;;;;;29.50;15.35;;;2.60;99.90;;;;;;5052351;28;20791;-50
2020/12/01 03:48:58;;;;;;;33.80;14.63;;;2.70;99.90;;;;;;5050980;28;20492;-52
2020/12/01 03:51:27;;;;;;;27.48;13.57;;;5.40;99.90;;;;;;5033378;28;20413;-49
2020/12/01 03:53:53;;;;;;;27.60;14.30;;;2.80;99.90;;;;;;5046361;28;20393;-54
2020/12/01 03:56:19;;;;;;;29.77;14.10;;;2.90;99.90;;;;;;5053298;28;20751;-49
2020/12/01 03:58:45;;;;;;;28.25;13.93;;;4.20;99.90;;;;;;5053204;28;20385;-51
2020/12/01 04:01:10;;;;;;;29.33;13.45;;;4.80;99.90;;;;;;5050187;28;21011;-51
2020/12/01 04:03:38;;;;;;;29.67;14.23;;;4.60;99.90;;;;;;5053229;28;20796;-51
2020/12/01 04:06:05;;;;;;;32.90;15.63;;;3.10;99.90;;;;;;5051868;28;20384;-52
2020/12/01 04:08:31;;;;;;;33.20;14.40;;;3.20;99.90;;;;;;5050948;28;20385;-51
2020/12/01 04:10:58;;;;;;;32.00;15.18;;;4.40;99.90;;;;;;5051329;28;20400;-52
2020/12/01 04:13:23;;;;;;;30.60;15.45;;;4.20;99.90;;;;;;5051706;28;20400;-51
2020/12/01 04:15:49;;;;;;;30.77;15.37;;;4.40;99.90;;;;;;5052476;28;20377;-51
2020/12/01 04:18:15;;;;;;;33.50;16.33;;;3.20;99.90;;;;;;5050101;28;20507;-51
2020/12/01 04:20:40;;;;;;;30.30;15.30;;;3.60;99.90;;;;;;5085359;28;20382;-51
2020/12/01 04:23:06;;;;;;;29.02;14.85;;;5.60;99.90;;;;;;5050557;28;20461;-52
2020/12/01 04:25:32;;;;;;;30.23;14.45;;;5.80;99.90;;;;;;5051758;28;20890;-51
2020/12/01 04:27:58;;;;;;;32.17;15.88;;;3.40;99.90;;;;;;5050411;28;20397;-51
2020/12/01 04:30:25;;;;;;;31.52;14.60;;;3.30;99.90;;;;;;5050477;28;20399;-51
2020/12/01 04:32:52;;;;;;;29.98;14.90;;;3.30;99.90;;;;;;5052131;28;20381;-55
2020/12/01 04:35:19;;;;;;;32.83;16.40;;;3.30;99.90;;;;;;5051516;28;20732;-51
2020/12/01 04:37:45;;;;;;;29.27;14.68;;;5.80;99.90;;;;;;5049477;28;20400;-51
2020/12/01 04:40:17;;;;;;;32.93;16.13;;;4.20;99.90;;;;;;5052063;28;20966;-51
2020/12/01 04:43:11;;;;;;;31.83;16.98;;;5.60;99.90;;;;;;5051260;28;20412;-51
2020/12/01 04:45:38;;;;;;;34.03;16.55;;;5.50;99.90;;;;;;5052609;28;20439;-51
2020/12/01 04:48:15;;;;;;;31.55;15.30;;;4.00;99.90;;;;;;5050069;28;20386;-51
2020/12/01 04:50:47;;;;;;;29.50;14.00;;;3.50;99.90;;;;;;5052413;28;20381;-51
2020/12/01 04:53:43;;;;;;;32.83;13.82;;;3.30;99.90;;;;;;5050356;28;20385;-51
2020/12/01 04:56:32;;;;;;;28.85;14.98;;;3.30;99.90;;;;;;5051194;28;20449;-51
2020/12/01 04:59:13;;;;;;;29.70;14.73;;;3.30;99.90;;;;;;5049430;28;20402;-51
2020/12/01 05:02:22;;;;;;;26.97;14.37;;;3.30;99.90;;;;;;5062976;28;20423;-51
2020/12/01 05:04:59;;;;;;;26.48;13.95;;;3.30;99.90;;;;;;5063173;28;20393;-51
2020/12/01 05:07:51;;;;;;;28.23;13.80;;;3.30;99.90;;;;;;5051335;28;20473;-51
2020/12/01 05:10:20;;;;;;;26.40;14.43;;;3.40;99.90;;;;;;5051033;28;20393;-51
2020/12/01 05:12:56;;;;;;;26.73;13.30;;;3.40;99.90;;;;;;5048058;28;20874;-51
2020/12/01 05:15:27;;;;;;;28.08;13.48;;;4.40;99.90;;;;;;5051688;28;20406;-52
2020/12/01 05:18:23;;;;;;;28.60;13.47;;;3.30;99.90;;;;;;5051104;28;20381;-55
2020/12/01 05:20:54;;;;;;;31.20;14.02;;;3.30;99.90;;;;;;5038787;28;20431;-51
2020/12/01 05:23:32;;;;;;;27.77;13.80;;;3.60;99.90;;;;;;5035831;28;20388;-52
2020/12/01 05:26:03;;;;;;;27.98;13.55;;;3.20;99.90;;;;;;5047574;28;20818;-52
2020/12/01 05:28:29;;;;;;;31.77;14.55;;;3.20;99.90;;;;;;5051315;28;20404;-51
2020/12/01 05:31:04;;;;;;;29.70;14.60;;;4.80;99.90;;;;;;5048704;28;20401;-51
2020/12/01 05:33:32;;;;;;;25.33;13.55;;;3.10;99.90;;;;;;5051093;28;20385;-51
2020/12/01 05:36:15;;;;;;;24.75;13.65;;;3.10;99.90;;;;;;5050997;28;20392;-52
2020/12/01 05:38:41;;;;;;;26.08;12.60;;;3.20;99.90;;;;;;5054614;28;20890;-51
2020/12/01 05:41:37;;;;;;;28.10;13.98;;;3.20;99.90;;;;;;5055446;28;20463;-51
2020/12/01 05:44:16;;;;;;;28.95;14.40;;;3.20;99.90;;;;;;5041900;28;20883;-51
2020/12/01 05:47:04;;;;;;;31.15;14.57;;;3.10;99.90;;;;;;5050835;28;20751;-50
2020/12/01 05:49:47;;;;;;;36.03;15.68;;;3.00;99.90;;;;;;5050095;28;20397;-51
2020/12/01 05:52:30;;;;;;;28.77;14.15;;;3.00;99.90;;;;;;5049860;28;20402;-52
2020/12/01 05:55:24;;;;;;;32.55;14.18;;;2.90;99.90;;;;;;5041649;28;20409;-51
2020/12/01 05:57:57;;;;;;;29.40;14.90;;;4.20;99.90;;;;;;5041594;28;20410;-54
2020/12/01 06:00:29;;;;;;;31.27;14.98;;;2.90;99.90;;;;;;5045803;28;20733;-52
2020/12/01 06:03:32;;;;;;;29.92;14.55;;;2.90;99.90;;;;;;5038835;28;20439;-54
2020/12/01 06:05:59;;;;;;;30.50;14.60;;;2.90;99.90;;;;;;5047402;28;20389;-51
2020/12/01 06:08:43;;;;;;;34.58;14.57;;;5.40;99.90;;;;;;5049707;28;20396;-51
2020/12/01 06:11:42;;;;;;;31.70;14.70;;;3.00;99.90;;;;;;5048616;28;20420;-51
2020/12/01 06:14:36;;;;;;;31.52;14.75;;;2.90;99.90;;;;;;5049364;28;20875;-51
2020/12/01 06:17:07;;;;;;;33.13;14.30;;;3.00;99.90;;;;;;5048807;28;20876;-51
2020/12/01 06:19:36;;;;;;;29.60;14.03;;;2.90;99.90;;;;;;5053676;28;20450;-51
2020/12/01 06:22:02;;;;;;;30.88;13.30;;;2.90;99.90;;;;;;5039227;28;20425;-51
2020/12/01 06:25:02;;;;;;;32.63;14.13;;;3.00;99.90;;;;;;5049652;28;20455;-51
2020/12/01 06:27:46;;;;;;;31.67;14.05;;;3.10;99.90;;;;;;5047162;28;20741;-52
2020/12/01 06:30:30;;;;;;;31.63;14.90;;;3.20;99.90;;;;;;5044338;28;20582;-51
2020/12/01 06:33:35;;;;;;;29.45;13.07;;;5.10;99.90;;;;;;5032686;28;20402;-52
2020/12/01 06:36:32;;;;;;;29.75;14.05;;;3.30;99.90;;;;;;5036319;28;20410;-51
2020/12/01 06:39:15;;;;;;;30.65;14.55;;;3.20;99.90;;;;;;5035139;28;20520;-52
2020/12/01 06:41:45;;;;;;;28.33;14.20;;;3.20;99.90;;;;;;5046963;28;20409;-51
2020/12/01 06:44:20;;;;;;;27.95;13.32;;;3.40;99.90;;;;;;5045226;28;20486;-51
2020/12/01 06:46:50;;;;;;;27.02;13.68;;;3.20;99.90;;;;;;5039043;28;20537;-51
2020/12/01 06:49:23;;;;;;;29.27;14.38;;;6.00;99.90;;;;;;5037960;28;20403;-52
2020/12/01 06:51:51;;;;;;;31.30;14.20;;;3.40;99.90;;;;;;5047445;28;20414;-51
2020/12/01 06:54:18;;;;;;;30.10;14.38;;;3.50;99.90;;;;;;5048040;28;20488;-51
2020/12/01 06:57:03;;;;;;;32.55;14.32;;;3.60;99.90;;;;;;5036766;28;20408;-52
2020/12/01 06:59:29;;;;;;;31.08;14.68;;;3.60;99.90;;;;;;5034353;28;20422;-52
2020/12/01 07:02:23;;;;;;;28.95;12.43;;;4.10;99.90;;;;;;5037588;28;20401;-52
2020/12/01 07:04:49;;;;;;;28.92;14.02;;;6.20;99.90;;;;;;5045634;28;20401;-51
2020/12/01 07:07:36;;;;;;;32.05;16.15;;;3.60;99.90;;;;;;5045648;28;20559;-52
2020/12/01 07:10:31;;;;;;;27.45;14.80;;;3.40;99.90;;;;;;5045127;28;20386;-51
2020/12/01 07:13:06;;;;;;;32.90;14.90;;;3.30;99.90;;;;;;5036039;28;20413;-51
2020/12/01 07:15:37;;;;;;;33.05;16.02;;;3.20;99.90;;;;;;5039821;28;20455;-52
2020/12/01 07:18:28;;;;;;;36.70;14.63;;;3.20;99.90;;;;;;5067385;28;20401;-51
2020/12/01 07:21:14;;;;;;;35.15;15.43;;;3.30;99.90;;;;;;5042082;28;20401;-55
2020/12/01 07:24:01;;;;;;;37.03;15.38;;;3.10;99.90;;;;;;5038139;28;20405;-52
2020/12/01 07:27:23;;;;;;;37.80;16.80;;;3.10;99.90;;;;;;5039925;28;22049;-52
2020/12/01 07:29:55;;;;;;;33.65;15.82;;;3.20;99.90;;;;;;5007042;28;20413;-51
2020/12/01 07:32:29;;;;;;;35.90;15.65;;;6.10;99.90;;;;;;5064033;28;20436;-51
2020/12/01 07:35:13;;;;;;;37.40;15.80;;;3.30;99.90;;;;;;5045944;28;20424;-55
2020/12/01 07:37:56;;;;;;;32.92;14.85;;;3.20;99.90;;;;;;5038768;28;20404;-52
2020/12/01 07:40:25;;;;;;;29.42;14.82;;;3.70;99.90;;;;;;5041071;28;20410;-51
2020/12/01 07:43:01;;;;;;;35.20;14.75;;;3.50;99.90;;;;;;5036693;28;20415;-52
2020/12/01 07:45:28;;;;;;;34.40;16.50;;;3.50;99.90;;;;;;5037300;28;20397;-52
2020/12/01 07:48:01;;;;;;;32.70;15.90;;;3.50;99.90;;;;;;5044409;28;21241;-55
2020/12/01 07:50:30;;;;;;;40.22;17.30;;;3.50;99.90;;;;;;5040076;28;20502;-51
2020/12/01 07:53:06;;;;;;;33.30;16.00;;;3.40;99.90;;;;;;5037488;28;20421;-53
2020/12/01 07:55:40;;;;;;;36.55;16.15;;;4.80;99.90;;;;;;5047795;28;20396;-51
2020/12/01 07:58:13;;;;;;;33.38;16.35;;;3.50;99.90;;;;;;5038264;28;20452;-52
2020/12/01 08:00:39;;;;;;;29.77;15.40;;;5.40;99.90;;;;;;5043620;28;20802;-52
2020/12/01 08:03:14;;;;;;;28.60;14.07;;;3.50;99.90;;;;;;5043745;28;20413;-52
2020/12/01 08:05:39;;;;;;;38.88;15.90;;;2.10;99.90;;;;;;5039251;28;20415;-51
2020/12/01 08:08:05;;;;;;;32.95;15.43;;;3.60;99.90;;;;;;5045407;28;20389;-51
2020/12/01 08:10:32;;;;;;;34.63;15.88;;;3.70;99.90;;;;;;5045878;28;20484;-51
2020/12/01 08:13:05;;;;;;;34.60;15.10;;;3.80;99.90;;;;;;5046371;28;20473;-51
2020/12/01 08:15:32;;;;;;;32.40;14.97;;;3.80;99.90;;;;;;5046859;28;20867;-51
2020/12/01 08:18:03;;;;;;;32.50;14.90;;;3.80;99.90;;;;;;5040870;28;20426;-51
2020/12/01 08:20:29;;;;;;;29.58;14.55;;;3.80;99.90;;;;;;5046822;28;20400;-51
2020/12/01 08:23:16;;;;;;;32.30;16.27;;;3.70;99.90;;;;;;5040610;28;20446;-55
2020/12/01 08:25:44;;;;;;;34.78;14.75;;;3.80;99.90;;;;;;5040965;28;20388;-51
2020/12/01 08:28:28;;;;;;;28.50;14.55;;;3.90;99.90;;;;;;5035749;28;20470;-51
2020/12/01 08:31:10;;;;;;;31.83;15.07;;;3.90;99.90;;;;;;5040162;28;20411;-54
2020/12/01 08:34:09;;;;;;;34.45;16.48;;;3.90;99.90;;;;;;5042743;28;20481;-51
2020/12/01 08:36:55;;;;;;;29.70;14.50;;;4.00;99.90;;;;;;5038084;28;20407;-51
2020/12/01 08:39:55;;;;;;;32.25;15.93;;;4.00;99.90;;;;;;5037909;28;20391;-51
2020/12/01 08:42:33;;;;;;;32.10;15.27;;;2.50;99.90;;;;;;5040219;28;20923;-51
2020/12/01 08:45:23;;;;;;;28.70;14.25;;;3.90;99.90;;;;;;5041876;28;20907;-52
2020/12/01 08:47:49;;;;;;;26.45;14.10;;;3.90;99.90;;;;;;5051326;28;20389;-51
2020/12/01 08:50:22;;;;;;;23.88;12.60;;;3.90;99.90;;;;;;5045243;28;20409;-51
2020/12/01 08:52:48;;;;;;;25.00;12.60;;;3.90;99.90;;;;;;5042212;28;20961;-52
2020/12/01 08:55:43;;;;;;;22.40;11.35;;;4.00;99.90;;;;;;5046774;28;20394;-51
2020/12/01 08:58:28;;;;;;;21.63;9.80;;;4.00;99.90;;;;;;5041691;28;20387;-52
2020/12/01 09:01:04;;;;;;;19.10;10.32;;;3.90;99.90;;;;;;5042774;28;20409;-54
2020/12/01 09:03:32;;;;;;;17.60;9.65;;;4.00;99.90;;;;;;5041280;28;20442;-52
2020/12/01 09:05:59;;;;;;;18.63;9.02;;;4.00;99.90;;;;;;5044803;28;20421;-52
2020/12/01 09:13:52;;;;;;;14.65;8.02;;;3.80;99.90;;;;;;5050800;28;20838;-51
2020/12/01 09:16:25;;;;;;;18.58;9.43;;;3.10;99.90;;;;;;5047040;28;20447;-51
2020/12/01 09:21:55;;;;;;;18.90;9.90;;;4.10;99.90;;;;;;5045980;28;20475;-51
2020/12/01 09:24:28;;;;;;;20.20;11.20;;;4.20;99.90;;;;;;5048226;28;20377;-51
2020/12/01 09:27:06;;;;;;;21.58;12.40;;;4.40;99.90;;;;;;5035832;28;20470;-54
2020/12/01 09:29:32;;;;;;;23.40;11.10;;;4.60;99.90;;;;;;5048519;28;20382;-51
2020/12/01 09:31:58;;;;;;;19.80;10.00;;;4.60;99.90;;;;;;5045289;28;20393;-51
2020/12/01 09:34:28;;;;;;;21.13;11.23;;;4.70;99.90;;;;;;5044181;28;20387;-53
2020/12/01 09:37:01;;;;;;;18.23;9.88;;;4.70;99.90;;;;;;5040003;28;20389;-55
2020/12/01 09:39:27;;;;;;;23.10;11.38;;;4.80;99.90;;;;;;5047324;28;20408;-51
2020/12/01 09:42:08;;;;;;;21.73;11.32;;;4.80;99.90;;;;;;5044331;28;20406;-54
2020/12/01 09:47:25;;;;;;;24.15;10.02;;;4.70;99.90;;;;;;5047943;28;20385;-51
2020/12/01 09:49:51;;;;;;;22.38;11.75;;;4.60;99.90;;;;;;5033913;28;20380;-52
2020/12/01 09:52:22;;;;;;;22.40;11.50;;;4.60;99.90;;;;;;5043488;28;20406;-51
2020/12/01 09:54:55;;;;;;;20.52;10.90;;;4.60;99.90;;;;;;5037822;28;20386;-51
2020/12/01 10:10:25;;;;;;;19.87;10.27;;;4.50;99.90;;;;;;5042840;28;20763;-51
2020/12/01 10:26:33;;;;;;;20.50;10.15;;;4.30;99.90;;;;;;5037976;28;20413;-54
2020/12/01 10:36:36;;;;;;;24.25;10.30;;;4.10;99.90;;;;;;5042227;28;20430;-51
2020/12/01 10:39:04;;;;;;;23.27;10.77;;;4.10;99.90;;;;;;5042448;28;20404;-52
2020/12/01 10:41:34;;;;;;;22.20;11.57;;;4.00;99.90;;;;;;5033216;28;20411;-52
2020/12/01 10:44:02;;;;;;;26.47;11.80;;;5.10;99.90;;;;;;5042825;28;20434;-51
2020/12/01 10:46:28;;;;;;;24.55;11.35;;;4.00;99.90;;;;;;5044982;28;20387;-52
2020/12/01 10:48:54;;;;;;;26.80;11.90;;;4.00;99.90;;;;;;5039576;28;20408;-54
2020/12/01 10:51:20;;;;;;;23.88;11.63;;;6.00;99.90;;;;;;5038134;28;20405;-51
2020/12/01 10:53:45;;;;;;;27.08;12.73;;;3.90;99.90;;;;;;5047434;28;20778;-52
2020/12/01 10:56:11;;;;;;;23.53;12.30;;;3.90;99.90;;;;;;5035514;28;20371;-51
2020/12/01 10:58:37;;;;;;;22.43;10.60;;;4.00;99.90;;;;;;5040006;28;20408;-51
2020/12/01 11:01:03;;;;;;;26.35;10.98;;;3.90;99.90;;;;;;5045771;28;20381;-51
2020/12/01 11:03:29;;;;;;;25.98;11.57;;;3.90;99.90;;;;;;5037620;28;20386;-52
2020/12/01 11:05:55;;;;;;;26.50;13.50;;;3.90;99.90;;;;;;5043115;28;20546;-55
2020/12/01 11:08:21;;;;;;;26.90;13.63;;;4.00;99.90;;;;;;5044021;28;20382;-51
2020/12/01 11:10:47;;;;;;;27.08;13.65;;;4.00;99.90;;;;;;5046623;28;20940;-54
2020/12/01 11:13:13;;;;;;;27.30;13.27;;;4.00;99.90;;;;;;5045497;28;20389;-52
2020/12/01 11:15:38;;;;;;;30.27;14.50;;;4.00;99.90;;;;;;5032501;28;20802;-52
2020/12/01 11:18:06;;;;;;;27.92;14.30;;;4.10;99.90;;;;;;5036632;28;20464;-51
2020/12/01 11:20:32;;;;;;;28.50;14.57;;;4.10;99.90;;;;;;5044796;28;20405;-52
2020/12/01 11:22:58;;;;;;;28.30;13.57;;;4.10;99.90;;;;;;5045348;28;20531;-51
2020/12/01 11:25:24;;;;;;;29.37;13.57;;;6.70;99.90;;;;;;5045510;28;20460;-52
2020/12/01 11:27:49;;;;;;;27.60;13.15;;;4.00;99.90;;;;;;5035303;28;20752;-51
2020/12/01 11:30:18;;;;;;;26.50;13.53;;;5.70;99.90;;;;;;5040935;28;20375;-52
2020/12/01 11:32:44;;;;;;;26.42;12.65;;;4.30;99.90;;;;;;5041106;28;20442;-53
2020/12/01 11:35:11;;;;;;;23.40;11.90;;;4.50;99.90;;;;;;5042579;28;20400;-52
2020/12/01 11:37:38;;;;;;;23.98;12.63;;;4.60;99.90;;;;;;5044499;28;20903;-56
2020/12/01 11:40:06;;;;;;;24.52;11.80;;;4.70;99.90;;;;;;5042085;28;20456;-53
2020/12/01 11:42:31;;;;;;;26.40;12.00;;;6.20;99.90;;;;;;5033096;28;20412;-52
2020/12/01 11:44:57;;;;;;;24.17;11.97;;;4.70;99.90;;;;;;5032375;28;20397;-52
2020/12/01 11:47:23;;;;;;;24.85;12.70;;;4.60;99.90;;;;;;5029074;28;20426;-52
2020/12/01 11:49:48;;;;;;;23.87;11.43;;;4.60;99.90;;;;;;5033741;28;20407;-51
2020/12/01 11:52:14;;;;;;;20.27;10.40;;;4.60;99.90;;;;;;5034747;28;21095;-52
2020/12/01 11:54:39;;;;;;;22.77;10.63;;;4.60;99.90;;;;;;5039033;28;20488;-52
2020/12/01 11:57:05;;;;;;;22.47;11.07;;;4.70;99.90;;;;;;5036504;28;20393;-52
2020/12/01 11:59:31;;;;;;;21.17;11.48;;;4.70;99.90;;;;;;5040513;28;20417;-52
2020/12/01 12:01:56;;;;;;;22.13;10.60;;;4.80;99.90;;;;;;5038227;28;20767;-55
2020/12/01 12:04:22;;;;;;;22.23;11.10;;;4.50;99.90;;;;;;5044126;28;20867;-52
2020/12/01 12:06:48;;;;;;;19.53;10.07;;;4.60;99.90;;;;;;5042185;28;20410;-52
2020/12/01 12:09:14;;;;;;;24.35;10.60;;;4.70;99.90;;;;;;5050270;28;20397;-52
2020/12/01 12:11:40;;;;;;;23.00;11.20;;;4.70;99.90;;;;;;5046443;28;20389;-52
2020/12/01 12:14:06;;;;;;;20.05;10.15;;;4.80;99.90;;;;;;5043520;28;20403;-52
2020/12/01 12:16:32;;;;;;;20.48;9.98;;;4.70;99.90;;;;;;5039389;28;22299;-52
2020/12/01 12:18:58;;;;;;;20.40;11.25;;;4.70;99.90;;;;;;5045372;28;20429;-52
2020/12/01 12:21:25;;;;;;;24.45;12.02;;;4.70;99.90;;;;;;5040234;28;20413;-51
2020/12/01 12:23:50;;;;;;;23.35;11.98;;;4.90;99.90;;;;;;5049031;28;20405;-51
2020/12/01 12:26:17;;;;;;;23.57;12.03;;;4.80;99.90;;;;;;5042114;28;20891;-53
2020/12/01 12:28:43;;;;;;;24.50;12.10;;;4.70;99.90;;;;;;5047752;28;20399;-51
2020/12/01 12:31:12;;;;;;;24.63;13.50;;;4.60;99.90;;;;;;5049599;28;20381;-51
2020/12/01 12:33:38;;;;;;;25.58;13.23;;;4.70;99.90;;;;;;5041625;28;20429;-52
2020/12/01 12:36:04;;;;;;;26.20;13.32;;;4.80;99.90;;;;;;5040586;28;20414;-51
2020/12/01 12:38:30;;;;;;;23.80;13.63;;;4.80;99.90;;;;;;5048788;28;20506;-52
2020/12/01 12:40:57;;;;;;;24.88;13.90;;;5.70;99.90;;;;;;5046129;28;20373;-52
2020/12/01 12:43:24;;;;;;;27.75;13.32;;;5.00;99.90;;;;;;5048093;28;20438;-52
2020/12/01 12:45:49;;;;;;;22.27;11.77;;;5.00;99.90;;;;;;5041881;28;20772;-52
2020/12/01 12:48:16;;;;;;;26.50;12.80;;;5.10;99.90;;;;;;5046159;28;20377;-51
2020/12/01 12:50:42;;;;;;;24.15;12.00;;;5.10;99.90;;;;;;5048466;28;20407;-51
2020/12/01 12:53:08;;;;;;;26.77;13.40;;;5.20;99.90;;;;;;5048635;28;20389;-52
2020/12/01 12:55:34;;;;;;;25.67;12.77;;;5.20;99.90;;;;;;5039471;28;20392;-51
2020/12/01 12:58:00;;;;;;;21.90;12.47;;;5.30;99.90;;;;;;5037400;28;20881;-51
2020/12/01 13:00:30;;;;;;;25.92;13.63;;;5.20;99.90;;;;;;5042845;28;20395;-52
2020/12/01 13:02:56;;;;;;;33.80;18.13;;;5.10;99.90;;;;;;5043519;28;20550;-55
2020/12/01 13:05:22;;;;;;;31.63;17.08;;;4.90;99.90;;;;;;5042697;28;20819;-52
2020/12/01 13:07:48;;;;;;;42.08;22.50;;;4.70;99.90;;;;;;5040098;28;20455;-52
2020/12/01 13:10:14;;;;;;;25.48;12.55;;;4.60;99.90;;;;;;5044878;28;20386;-51
2020/12/01 13:12:40;;;;;;;27.35;13.48;;;4.50;99.90;;;;;;5043141;28;20398;-52
2020/12/01 13:15:07;;;;;;;21.67;12.20;;;4.50;99.90;;;;;;5039809;28;20885;-52
2020/12/01 13:17:33;;;;;;;36.88;17.65;;;4.60;99.90;;;;;;5038210;28;20825;-52
2020/12/01 13:19:58;;;;;;;116.03;55.05;;;4.60;99.90;;;;;;5037918;28;20410;-52
2020/12/01 13:22:24;;;;;;;29.70;17.57;;;4.70;99.90;;;;;;5044019;28;20444;-52
2020/12/01 13:24:50;;;;;;;24.00;12.30;;;4.70;99.90;;;;;;5044638;28;20402;-52
2020/12/01 13:27:15;;;;;;;22.70;11.50;;;4.80;99.90;;;;;;5034689;28;20381;-52
2020/12/01 13:29:41;;;;;;;28.67;13.45;;;4.80;99.90;;;;;;5045179;28;20408;-54
2020/12/01 13:32:07;;;;;;;20.73;11.03;;;4.90;99.90;;;;;;5046512;28;20590;-52
2020/12/01 13:34:32;;;;;;;25.30;12.65;;;5.00;99.90;;;;;;5044087;28;20484;-52
2020/12/01 13:36:58;;;;;;;24.40;12.75;;;5.00;99.90;;;;;;5045436;28;20442;-52
2020/12/01 13:39:24;;;;;;;22.70;12.27;;;5.00;99.90;;;;;;5041972;28;20438;-52
2020/12/01 13:41:50;;;;;;;26.50;13.57;;;4.90;99.90;;;;;;5040335;28;20434;-53
2020/12/01 13:44:17;;;;;;;23.42;11.00;;;4.80;99.90;;;;;;5044954;28;20401;-52
2020/12/01 13:46:42;;;;;;;19.42;10.35;;;4.80;99.90;;;;;;5043562;28;20409;-51
2020/12/01 13:49:10;;;;;;;23.47;10.60;;;4.80;99.90;;;;;;5041358;28;20392;-51
2020/12/01 13:51:36;;;;;;;17.00;9.30;;;4.80;99.90;;;;;;5040479;28;20433;-52
2020/12/01 13:54:01;;;;;;;17.97;9.77;;;4.80;99.90;;;;;;5046422;28;20389;-52
2020/12/01 13:56:27;;;;;;;17.95;9.38;;;4.90;99.90;;;;;;5036826;28;20729;-53
2020/12/01 13:58:53;;;;;;;18.50;10.27;;;5.00;99.90;;;;;;5045873;28;20481;-51
2020/12/01 14:01:18;;;;;;;17.37;9.00;;;5.00;99.90;;;;;;5045216;28;20472;-53
2020/12/01 14:03:44;;;;;;;16.58;9.45;;;5.10;99.90;;;;;;5043148;28;20864;-51
2020/12/01 14:06:09;;;;;;;18.03;10.77;;;6.70;99.90;;;;;;5045981;28;20387;-52
2020/12/01 14:08:35;;;;;;;20.17;10.15;;;5.10;99.90;;;;;;5039783;28;20444;-52